sensor_id;sensor_type;location;lat;lon;timestamp;pressure;altitude;pressure_sealevel;temperature;humidity
70488;BME280;57976;48.174;16.370;2022-10-04T00:01:31;99797.38;;;12.56;78.04
70488;BME280;57976;48.174;16.370;2022-10-04T00:03:48;99805.14;;;12.54;78.36
70488;BME280;57976;48.174;16.370;2022-10-04T00:05:57;99799.27;;;12.54;78.37
70488;BME280;57976;48.174;16.370;2022-10-04T00:08:17;99808.34;;;12.53;78.45
70488;BME280;57976;48.174;16.370;2022-10-04T00:10:27;99806.24;;;12.53;78.52
70488;BME280;57976;48.174;16.370;2022-10-04T00:12:36;99803.61;;;12.52;78.56
70488;BME280;57976;48.174;16.370;2022-10-04T00:14:43;99803.90;;;12.52;78.70
70488;BME280;57976;48.174;16.370;2022-10-04T00:16:49;99797.60;;;12.51;78.30
70488;BME280;57976;48.174;16.370;2022-10-04T00:19:22;99798.02;;;12.52;78.75
70488;BME280;57976;48.174;16.370;2022-10-04T00:24:21;99794.20;;;12.51;78.35
70488;BME280;57976;48.174;16.370;2022-10-04T00:29:30;99800.73;;;12.54;78.70
70488;BME280;57976;48.174;16.370;2022-10-04T00:34:48;99793.06;;;12.58;78.28
70488;BME280;57976;48.174;16.370;2022-10-04T00:36:54;99785.38;;;12.60;78.20
70488;BME280;57976;48.174;16.370;2022-10-04T00:39:14;99788.18;;;12.60;78.14
70488;BME280;57976;48.174;16.370;2022-10-04T00:41:20;99783.98;;;12.60;78.21
70488;BME280;57976;48.174;16.370;2022-10-04T00:43:28;99786.78;;;12.60;78.22
70488;BME280;57976;48.174;16.370;2022-10-04T00:45:37;99785.63;;;12.61;78.11
70488;BME280;57976;48.174;16.370;2022-10-04T00:50:26;99793.94;;;12.63;78.24
70488;BME280;57976;48.174;16.370;2022-10-04T00:52:35;99786.34;;;12.62;78.14
70488;BME280;57976;48.174;16.370;2022-10-04T00:54:48;99783.38;;;12.63;78.24
70488;BME280;57976;48.174;16.370;2022-10-04T00:56:56;99788.21;;;12.63;78.30
70488;BME280;57976;48.174;16.370;2022-10-04T00:59:19;99789.08;;;12.65;78.12
70488;BME280;57976;48.174;16.370;2022-10-04T01:01:27;99784.85;;;12.63;78.11
70488;BME280;57976;48.174;16.370;2022-10-04T01:03:38;99788.19;;;12.63;78.19
70488;BME280;57976;48.174;16.370;2022-10-04T01:05:48;99785.77;;;12.63;78.10
70488;BME280;57976;48.174;16.370;2022-10-04T01:07:57;99784.35;;;12.64;78.08
70488;BME280;57976;48.174;16.370;2022-10-04T01:10:09;99780.20;;;12.64;77.75
70488;BME280;57976;48.174;16.370;2022-10-04T01:12:23;99781.36;;;12.66;77.71
70488;BME280;57976;48.174;16.370;2022-10-04T01:14:38;99778.48;;;12.68;77.72
70488;BME280;57976;48.174;16.370;2022-10-04T01:16:46;99778.32;;;12.69;77.49
70488;BME280;57976;48.174;16.370;2022-10-04T01:18:51;99772.89;;;12.69;77.43
70488;BME280;57976;48.174;16.370;2022-10-04T01:20:59;99773.27;;;12.72;77.45
70488;BME280;57976;48.174;16.370;2022-10-04T01:23:09;99768.95;;;12.72;77.37
70488;BME280;57976;48.174;16.370;2022-10-04T01:25:44;99770.60;;;12.75;77.10
70488;BME280;57976;48.174;16.370;2022-10-04T01:27:50;99765.00;;;12.75;77.13
70488;BME280;57976;48.174;16.370;2022-10-04T01:29:56;99765.26;;;12.76;77.04
70488;BME280;57976;48.174;16.370;2022-10-04T01:32:01;99763.40;;;12.76;76.99
70488;BME280;57976;48.174;16.370;2022-10-04T01:34:07;99769.05;;;12.78;76.97
70488;BME280;57976;48.174;16.370;2022-10-04T01:36:12;99764.85;;;12.79;76.91
70488;BME280;57976;48.174;16.370;2022-10-04T01:38:17;99767.20;;;12.80;76.53
70488;BME280;57976;48.174;16.370;2022-10-04T01:40:22;99767.48;;;12.81;76.55
70488;BME280;57976;48.174;16.370;2022-10-04T01:42:34;99763.21;;;12.81;76.44
70488;BME280;57976;48.174;16.370;2022-10-04T01:44:44;99763.29;;;12.81;76.40
70488;BME280;57976;48.174;16.370;2022-10-04T01:46:50;99767.01;;;12.83;76.13
70488;BME280;57976;48.174;16.370;2022-10-04T01:48:58;99761.32;;;12.84;76.05
70488;BME280;57976;48.174;16.370;2022-10-04T01:51:10;99759.16;;;12.83;75.99
70488;BME280;57976;48.174;16.370;2022-10-04T01:53:21;99754.23;;;12.82;76.14
70488;BME280;57976;48.174;16.370;2022-10-04T01:55:29;99750.16;;;12.82;76.01
70488;BME280;57976;48.174;16.370;2022-10-04T01:57:40;99744.17;;;12.83;75.83
70488;BME280;57976;48.174;16.370;2022-10-04T01:59:50;99742.23;;;12.83;75.92
70488;BME280;57976;48.174;16.370;2022-10-04T02:02:00;99740.92;;;12.83;75.64
70488;BME280;57976;48.174;16.370;2022-10-04T02:04:11;99735.90;;;12.83;75.48
70488;BME280;57976;48.174;16.370;2022-10-04T02:06:26;99731.48;;;12.83;75.36
70488;BME280;57976;48.174;16.370;2022-10-04T02:08:34;99724.09;;;12.82;75.42
70488;BME280;57976;48.174;16.370;2022-10-04T02:10:41;99726.68;;;12.83;75.24
70488;BME280;57976;48.174;16.370;2022-10-04T02:12:48;99725.94;;;12.84;74.99
70488;BME280;57976;48.174;16.370;2022-10-04T02:14:56;99719.73;;;12.84;74.99
70488;BME280;57976;48.174;16.370;2022-10-04T02:17:04;99712.98;;;12.84;74.96
70488;BME280;57976;48.174;16.370;2022-10-04T02:19:11;99716.85;;;12.86;74.83
70488;BME280;57976;48.174;16.370;2022-10-04T02:21:17;99709.04;;;12.87;74.68
70488;BME280;57976;48.174;16.370;2022-10-04T02:23:23;99708.52;;;12.88;74.52
70488;BME280;57976;48.174;16.370;2022-10-04T02:25:29;99707.73;;;12.90;74.47
70488;BME280;57976;48.174;16.370;2022-10-04T02:27:34;99713.11;;;12.91;74.34
70488;BME280;57976;48.174;16.370;2022-10-04T02:29:39;99709.29;;;12.93;74.22
70488;BME280;57976;48.174;16.370;2022-10-04T02:31:44;99716.55;;;12.93;74.08
70488;BME280;57976;48.174;16.370;2022-10-04T02:33:54;99711.66;;;12.94;74.11
70488;BME280;57976;48.174;16.370;2022-10-04T02:36:00;99708.12;;;12.93;74.11
70488;BME280;57976;48.174;16.370;2022-10-04T02:38:11;99712.70;;;12.94;74.00
70488;BME280;57976;48.174;16.370;2022-10-04T02:40:20;99715.03;;;12.95;74.07
70488;BME280;57976;48.174;16.370;2022-10-04T02:42:32;99732.85;;;12.95;73.98
70488;BME280;57976;48.174;16.370;2022-10-04T02:44:42;99724.49;;;12.95;74.02
70488;BME280;57976;48.174;16.370;2022-10-04T02:46:53;99728.08;;;12.95;74.02
70488;BME280;57976;48.174;16.370;2022-10-04T02:49:03;99729.60;;;12.95;73.90
70488;BME280;57976;48.174;16.370;2022-10-04T02:51:25;99736.96;;;12.95;73.90
70488;BME280;57976;48.174;16.370;2022-10-04T02:53:38;99741.05;;;12.95;73.99
70488;BME280;57976;48.174;16.370;2022-10-04T02:55:47;99738.73;;;12.94;73.96
70488;BME280;57976;48.174;16.370;2022-10-04T02:57:52;99747.54;;;12.91;74.06
70488;BME280;57976;48.174;16.370;2022-10-04T03:00:12;99740.02;;;12.90;73.92
70488;BME280;57976;48.174;16.370;2022-10-04T03:02:26;99740.41;;;12.88;74.01
70488;BME280;57976;48.174;16.370;2022-10-04T03:04:38;99742.39;;;12.87;74.03
70488;BME280;57976;48.174;16.370;2022-10-04T03:06:44;99741.73;;;12.85;74.17
70488;BME280;57976;48.174;16.370;2022-10-04T03:08:51;99732.03;;;12.83;74.23
70488;BME280;57976;48.174;16.370;2022-10-04T03:10:58;99730.30;;;12.81;74.39
70488;BME280;57976;48.174;16.370;2022-10-04T03:13:04;99733.88;;;12.81;74.50
70488;BME280;57976;48.174;16.370;2022-10-04T03:15:11;99743.02;;;12.81;74.58
70488;BME280;57976;48.174;16.370;2022-10-04T03:17:17;99742.06;;;12.80;74.74
70488;BME280;57976;48.174;16.370;2022-10-04T03:19:24;99750.20;;;12.79;74.91
70488;BME280;57976;48.174;16.370;2022-10-04T03:21:31;99753.01;;;12.78;74.98
70488;BME280;57976;48.174;16.370;2022-10-04T03:23:36;99750.61;;;12.77;75.01
70488;BME280;57976;48.174;16.370;2022-10-04T03:25:49;99743.86;;;12.76;75.08
70488;BME280;57976;48.174;16.370;2022-10-04T03:27:59;99741.85;;;12.75;75.18
70488;BME280;57976;48.174;16.370;2022-10-04T03:30:10;99738.52;;;12.73;75.09
70488;BME280;57976;48.174;16.370;2022-10-04T03:32:17;99737.52;;;12.74;75.22
70488;BME280;57976;48.174;16.370;2022-10-04T03:34:24;99738.56;;;12.73;75.28
70488;BME280;57976;48.174;16.370;2022-10-04T03:36:31;99737.00;;;12.73;75.40
70488;BME280;57976;48.174;16.370;2022-10-04T03:38:38;99732.44;;;12.73;75.71
70488;BME280;57976;48.174;16.370;2022-10-04T03:40:49;99732.52;;;12.73;75.43
70488;BME280;57976;48.174;16.370;2022-10-04T03:42:55;99731.60;;;12.70;75.56
70488;BME280;57976;48.174;16.370;2022-10-04T03:45:05;99734.44;;;12.69;75.60
70488;BME280;57976;48.174;16.370;2022-10-04T03:47:13;99739.05;;;12.70;75.82
70488;BME280;57976;48.174;16.370;2022-10-04T03:49:28;99740.45;;;12.68;75.75
70488;BME280;57976;48.174;16.370;2022-10-04T03:51:35;99742.75;;;12.68;75.99
70488;BME280;57976;48.174;16.370;2022-10-04T03:53:41;99743.81;;;12.68;76.01
70488;BME280;57976;48.174;16.370;2022-10-04T03:55:47;99738.14;;;12.67;75.71
70488;BME280;57976;48.174;16.370;2022-10-04T03:57:52;99740.77;;;12.65;75.88
70488;BME280;57976;48.174;16.370;2022-10-04T03:59:57;99739.13;;;12.65;76.05
70488;BME280;57976;48.174;16.370;2022-10-04T04:02:06;99739.73;;;12.66;76.17
70488;BME280;57976;48.174;16.370;2022-10-04T04:04:19;99738.18;;;12.65;76.12
70488;BME280;57976;48.174;16.370;2022-10-04T04:06:33;99735.42;;;12.65;75.97
70488;BME280;57976;48.174;16.370;2022-10-04T04:08:42;99730.36;;;12.66;75.88
70488;BME280;57976;48.174;16.370;2022-10-04T04:10:51;99737.48;;;12.66;75.96
70488;BME280;57976;48.174;16.370;2022-10-04T04:13:04;99737.53;;;12.68;75.88
70488;BME280;57976;48.174;16.370;2022-10-04T04:15:12;99738.23;;;12.68;76.01
70488;BME280;57976;48.174;16.370;2022-10-04T04:19:49;99736.84;;;12.68;76.02
70488;BME280;57976;48.174;16.370;2022-10-04T04:21:55;99734.23;;;12.67;76.09
70488;BME280;57976;48.174;16.370;2022-10-04T04:24:03;99733.29;;;12.66;76.07
70488;BME280;57976;48.174;16.370;2022-10-04T04:26:22;99738.48;;;12.66;75.86
70488;BME280;57976;48.174;16.370;2022-10-04T04:28:32;99741.17;;;12.67;76.04
70488;BME280;57976;48.174;16.370;2022-10-04T04:30:38;99746.84;;;12.67;76.04
70488;BME280;57976;48.174;16.370;2022-10-04T04:32:50;99739.58;;;12.66;75.92
70488;BME280;57976;48.174;16.370;2022-10-04T04:35:00;99746.95;;;12.68;75.99
70488;BME280;57976;48.174;16.370;2022-10-04T04:37:08;99742.59;;;12.67;76.13
70488;BME280;57976;48.174;16.370;2022-10-04T04:39:18;99750.90;;;12.68;76.05
70488;BME280;57976;48.174;16.370;2022-10-04T04:41:24;99742.35;;;12.68;75.92
70488;BME280;57976;48.174;16.370;2022-10-04T04:43:30;99748.34;;;12.67;75.97
70488;BME280;57976;48.174;16.370;2022-10-04T04:45:36;99741.93;;;12.68;75.97
70488;BME280;57976;48.174;16.370;2022-10-04T04:47:43;99746.58;;;12.68;75.96
70488;BME280;57976;48.174;16.370;2022-10-04T04:49:50;99746.73;;;12.68;76.08
70488;BME280;57976;48.174;16.370;2022-10-04T04:51:55;99752.37;;;12.67;75.97
70488;BME280;57976;48.174;16.370;2022-10-04T04:54:01;99751.27;;;12.68;76.10
70488;BME280;57976;48.174;16.370;2022-10-04T04:56:07;99751.01;;;12.65;76.20
70488;BME280;57976;48.174;16.370;2022-10-04T04:58:19;99749.52;;;12.66;76.28
70488;BME280;57976;48.174;16.370;2022-10-04T05:00:30;99756.28;;;12.67;76.35
70488;BME280;57976;48.174;16.370;2022-10-04T05:02:38;99757.72;;;12.67;76.34
70488;BME280;57976;48.174;16.370;2022-10-04T05:05:28;99765.91;;;12.69;76.33
70488;BME280;57976;48.174;16.370;2022-10-04T05:07:33;99767.02;;;12.68;76.42
70488;BME280;57976;48.174;16.370;2022-10-04T05:09:39;99774.61;;;12.67;76.43
70488;BME280;57976;48.174;16.370;2022-10-04T05:11:43;99766.19;;;12.68;76.30
70488;BME280;57976;48.174;16.370;2022-10-04T05:13:51;99772.64;;;12.66;76.33
70488;BME280;57976;48.174;16.370;2022-10-04T05:15:58;99775.81;;;12.65;76.46
70488;BME280;57976;48.174;16.370;2022-10-04T05:18:22;99775.31;;;12.66;76.60
70488;BME280;57976;48.174;16.370;2022-10-04T05:20:29;99780.86;;;12.66;76.63
70488;BME280;57976;48.174;16.370;2022-10-04T05:22:42;99781.14;;;12.66;76.61
70488;BME280;57976;48.174;16.370;2022-10-04T05:24:51;99781.98;;;12.67;76.49
70488;BME280;57976;48.174;16.370;2022-10-04T05:27:00;99783.21;;;12.68;76.51
70488;BME280;57976;48.174;16.370;2022-10-04T05:29:12;99785.47;;;12.69;76.52
70488;BME280;57976;48.174;16.370;2022-10-04T05:31:31;99782.89;;;12.70;76.58
70488;BME280;57976;48.174;16.370;2022-10-04T05:33:45;99782.28;;;12.70;76.73
70488;BME280;57976;48.174;16.370;2022-10-04T05:38:45;99791.00;;;12.71;76.79
70488;BME280;57976;48.174;16.370;2022-10-04T05:40:58;99790.39;;;12.72;76.55
70488;BME280;57976;48.174;16.370;2022-10-04T05:43:21;99793.96;;;12.73;76.55
70488;BME280;57976;48.174;16.370;2022-10-04T05:45:29;99797.30;;;12.72;76.62
70488;BME280;57976;48.174;16.370;2022-10-04T05:47:34;99802.64;;;12.74;76.56
70488;BME280;57976;48.174;16.370;2022-10-04T05:49:44;99801.23;;;12.75;76.56
70488;BME280;57976;48.174;16.370;2022-10-04T05:51:51;99805.98;;;12.75;76.52
70488;BME280;57976;48.174;16.370;2022-10-04T05:53:58;99806.39;;;12.76;76.62
70488;BME280;57976;48.174;16.370;2022-10-04T05:56:16;99808.82;;;12.78;76.58
70488;BME280;57976;48.174;16.370;2022-10-04T05:58:40;99820.47;;;12.80;76.50
70488;BME280;57976;48.174;16.370;2022-10-04T06:01:01;99817.64;;;12.80;76.38
70488;BME280;57976;48.174;16.370;2022-10-04T06:03:19;99818.08;;;12.82;76.36
70488;BME280;57976;48.174;16.370;2022-10-04T06:05:30;99820.15;;;12.83;76.25
70488;BME280;57976;48.174;16.370;2022-10-04T06:07:43;99815.66;;;12.83;76.36
70488;BME280;57976;48.174;16.370;2022-10-04T06:10:08;99818.20;;;12.84;76.49
70488;BME280;57976;48.174;16.370;2022-10-04T06:12:30;99822.58;;;12.87;76.31
70488;BME280;57976;48.174;16.370;2022-10-04T06:14:51;99828.30;;;12.88;76.34
70488;BME280;57976;48.174;16.370;2022-10-04T06:17:23;99833.03;;;12.90;76.26
70488;BME280;57976;48.174;16.370;2022-10-04T06:19:51;99831.06;;;12.92;76.28
70488;BME280;57976;48.174;16.370;2022-10-04T06:22:10;99832.30;;;12.93;76.30
70488;BME280;57976;48.174;16.370;2022-10-04T06:24:19;99834.31;;;12.95;76.26
70488;BME280;57976;48.174;16.370;2022-10-04T06:26:34;99838.34;;;12.96;76.16
70488;BME280;57976;48.174;16.370;2022-10-04T06:28:45;99840.52;;;12.98;75.88
70488;BME280;57976;48.174;16.370;2022-10-04T06:31:06;99841.60;;;12.99;76.15
70488;BME280;57976;48.174;16.370;2022-10-04T06:33:32;99844.23;;;13.03;75.98
70488;BME280;57976;48.174;16.370;2022-10-04T06:35:51;99847.45;;;13.08;75.90
70488;BME280;57976;48.174;16.370;2022-10-04T06:38:13;99845.71;;;13.09;75.71
70488;BME280;57976;48.174;16.370;2022-10-04T06:40:35;99843.55;;;13.11;75.77
70488;BME280;57976;48.174;16.370;2022-10-04T06:43:05;99845.98;;;13.14;75.68
70488;BME280;57976;48.174;16.370;2022-10-04T06:45:32;99851.36;;;13.18;75.52
70488;BME280;57976;48.174;16.370;2022-10-04T06:47:55;99850.37;;;13.19;75.40
70488;BME280;57976;48.174;16.370;2022-10-04T06:50:12;99855.52;;;13.19;75.32
70488;BME280;57976;48.174;16.370;2022-10-04T06:52:30;99856.55;;;13.19;75.45
70488;BME280;57976;48.174;16.370;2022-10-04T06:54:55;99859.08;;;13.22;75.44
70488;BME280;57976;48.174;16.370;2022-10-04T06:57:31;99869.85;;;13.26;75.23
70488;BME280;57976;48.174;16.370;2022-10-04T06:59:52;99875.41;;;13.29;74.99
70488;BME280;57976;48.174;16.370;2022-10-04T07:02:06;99877.67;;;13.28;74.96
70488;BME280;57976;48.174;16.370;2022-10-04T07:04:23;99874.05;;;13.28;74.98
70488;BME280;57976;48.174;16.370;2022-10-04T07:06:32;99873.68;;;13.30;74.89
70488;BME280;57976;48.174;16.370;2022-10-04T07:08:46;99875.75;;;13.33;74.98
70488;BME280;57976;48.174;16.370;2022-10-04T07:10:54;99879.91;;;13.36;74.92
70488;BME280;57976;48.174;16.370;2022-10-04T07:13:33;99879.73;;;13.37;74.96
70488;BME280;57976;48.174;16.370;2022-10-04T07:15:47;99879.29;;;13.41;75.01
70488;BME280;57976;48.174;16.370;2022-10-04T07:18:00;99885.30;;;13.43;74.67
70488;BME280;57976;48.174;16.370;2022-10-04T07:20:17;99887.36;;;13.45;74.66
70488;BME280;57976;48.174;16.370;2022-10-04T07:22:31;99889.46;;;13.48;74.61
70488;BME280;57976;48.174;16.370;2022-10-04T07:24:50;99886.17;;;13.51;74.46
70488;BME280;57976;48.174;16.370;2022-10-04T07:27:02;99885.51;;;13.54;74.43
70488;BME280;57976;48.174;16.370;2022-10-04T07:29:15;99887.81;;;13.61;74.20
70488;BME280;57976;48.174;16.370;2022-10-04T07:31:25;99887.85;;;13.65;74.06
70488;BME280;57976;48.174;16.370;2022-10-04T07:33:32;99887.86;;;13.67;73.69
70488;BME280;57976;48.174;16.370;2022-10-04T07:35:45;99883.78;;;13.70;73.62
70488;BME280;57976;48.174;16.370;2022-10-04T07:37:56;99896.46;;;13.72;73.11
70488;BME280;57976;48.174;16.370;2022-10-04T07:40:06;99891.15;;;13.73;73.29
70488;BME280;57976;48.174;16.370;2022-10-04T07:42:21;99894.56;;;13.78;73.31
70488;BME280;57976;48.174;16.370;2022-10-04T07:44:35;99892.80;;;13.83;72.91
70488;BME280;57976;48.174;16.370;2022-10-04T07:46:45;99893.02;;;13.89;73.06
70488;BME280;57976;48.174;16.370;2022-10-04T07:48:52;99892.35;;;13.98;72.88
70488;BME280;57976;48.174;16.370;2022-10-04T07:51:04;99886.58;;;14.03;72.24
70488;BME280;57976;48.174;16.370;2022-10-04T07:53:13;99891.01;;;14.08;72.18
70488;BME280;57976;48.174;16.370;2022-10-04T07:55:24;99888.30;;;14.12;71.95
70488;BME280;57976;48.174;16.370;2022-10-04T07:57:36;99890.73;;;14.19;71.40
70488;BME280;57976;48.174;16.370;2022-10-04T07:59:47;99890.98;;;14.24;71.26
70488;BME280;57976;48.174;16.370;2022-10-04T08:02:00;99882.36;;;14.27;71.15
70488;BME280;57976;48.174;16.370;2022-10-04T08:04:31;99888.16;;;14.27;70.72
70488;BME280;57976;48.174;16.370;2022-10-04T08:06:55;99888.71;;;14.32;70.99
70488;BME280;57976;48.174;16.370;2022-10-04T08:09:23;99895.92;;;14.37;70.31
70488;BME280;57976;48.174;16.370;2022-10-04T08:11:40;99894.55;;;14.42;70.71
70488;BME280;57976;48.174;16.370;2022-10-04T08:13:55;99892.38;;;14.48;70.00
70488;BME280;57976;48.174;16.370;2022-10-04T08:16:10;99889.89;;;14.52;69.94
70488;BME280;57976;48.174;16.370;2022-10-04T08:18:29;99894.78;;;14.54;69.88
70488;BME280;57976;48.174;16.370;2022-10-04T08:20:47;99901.98;;;14.60;70.00
70488;BME280;57976;48.174;16.370;2022-10-04T08:23:06;99893.76;;;14.64;70.07
70488;BME280;57976;48.174;16.370;2022-10-04T08:25:20;99889.60;;;14.72;69.81
70488;BME280;57976;48.174;16.370;2022-10-04T08:27:36;99890.20;;;14.75;69.47
70488;BME280;57976;48.174;16.370;2022-10-04T08:30:02;99890.52;;;14.78;69.12
70488;BME280;57976;48.174;16.370;2022-10-04T08:32:16;99887.27;;;14.82;69.18
70488;BME280;57976;48.174;16.370;2022-10-04T08:34:36;99885.42;;;14.89;69.35
70488;BME280;57976;48.174;16.370;2022-10-04T08:37:01;99895.48;;;14.97;69.05
70488;BME280;57976;48.174;16.370;2022-10-04T08:39:23;99896.50;;;15.03;68.54
70488;BME280;57976;48.174;16.370;2022-10-04T08:42:18;99901.27;;;15.08;67.68
70488;BME280;57976;48.174;16.370;2022-10-04T08:47:42;99901.90;;;15.09;67.69
70488;BME280;57976;48.174;16.370;2022-10-04T08:50:19;99895.69;;;15.11;68.09
70488;BME280;57976;48.174;16.370;2022-10-04T08:55:53;99903.44;;;15.21;67.47
70488;BME280;57976;48.174;16.370;2022-10-04T08:58:18;99895.40;;;15.18;67.17
70488;BME280;57976;48.174;16.370;2022-10-04T09:00:36;99896.36;;;15.21;67.59
70488;BME280;57976;48.174;16.370;2022-10-04T09:05:40;99893.96;;;15.29;67.21
70488;BME280;57976;48.174;16.370;2022-10-04T09:08:10;99890.48;;;15.30;67.33
70488;BME280;57976;48.174;16.370;2022-10-04T09:10:37;99893.17;;;15.34;67.19
70488;BME280;57976;48.174;16.370;2022-10-04T09:12:55;99898.33;;;15.37;66.81
70488;BME280;57976;48.174;16.370;2022-10-04T09:18:06;99902.88;;;15.40;66.71
70488;BME280;57976;48.174;16.370;2022-10-04T09:20:26;99901.71;;;15.42;66.86
70488;BME280;57976;48.174;16.370;2022-10-04T09:22:52;99903.66;;;15.45;66.68
70488;BME280;57976;48.174;16.370;2022-10-04T09:25:22;99906.73;;;15.50;66.83
70488;BME280;57976;48.174;16.370;2022-10-04T09:27:42;99907.00;;;15.57;66.61
70488;BME280;57976;48.174;16.370;2022-10-04T09:30:15;99909.80;;;15.56;65.72
70488;BME280;57976;48.174;16.370;2022-10-04T09:32:42;99907.81;;;15.54;65.93
70488;BME280;57976;48.174;16.370;2022-10-04T09:37:40;99917.16;;;15.57;65.79
70488;BME280;57976;48.174;16.370;2022-10-04T09:40:21;99919.27;;;15.57;65.75
70488;BME280;57976;48.174;16.370;2022-10-04T09:43:04;99928.99;;;15.56;65.69
70488;BME280;57976;48.174;16.370;2022-10-04T09:45:32;99928.45;;;15.57;65.83
70488;BME280;57976;48.174;16.370;2022-10-04T09:47:45;99932.80;;;15.56;65.16
70488;BME280;57976;48.174;16.370;2022-10-04T09:50:16;99929.34;;;15.55;65.84
70488;BME280;57976;48.174;16.370;2022-10-04T09:52:33;99939.78;;;15.56;65.16
70488;BME280;57976;48.174;16.370;2022-10-04T09:55:06;99921.53;;;15.55;65.90
70488;BME280;57976;48.174;16.370;2022-10-04T09:57:20;99931.04;;;15.59;65.48
70488;BME280;57976;48.174;16.370;2022-10-04T10:02:26;99923.27;;;15.67;65.62
70488;BME280;57976;48.174;16.370;2022-10-04T10:04:47;99930.40;;;15.74;65.40
70488;BME280;57976;48.174;16.370;2022-10-04T10:07:22;99928.66;;;15.78;65.35
70488;BME280;57976;48.174;16.370;2022-10-04T10:09:37;99930.90;;;15.81;65.29
70488;BME280;57976;48.174;16.370;2022-10-04T10:11:50;99937.98;;;15.85;65.07
70488;BME280;57976;48.174;16.370;2022-10-04T10:14:16;99937.45;;;15.89;64.71
70488;BME280;57976;48.174;16.370;2022-10-04T10:16:37;99933.59;;;15.91;64.89
70488;BME280;57976;48.174;16.370;2022-10-04T10:18:56;99940.59;;;15.88;64.68
70488;BME280;57976;48.174;16.370;2022-10-04T10:21:27;99932.85;;;15.86;64.89
70488;BME280;57976;48.174;16.370;2022-10-04T10:24:02;99932.63;;;15.86;64.91
70488;BME280;57976;48.174;16.370;2022-10-04T10:26:41;99938.45;;;15.92;64.92
70488;BME280;57976;48.174;16.370;2022-10-04T10:29:19;99939.74;;;15.93;64.62
70488;BME280;57976;48.174;16.370;2022-10-04T10:31:52;99937.91;;;15.92;64.37
70488;BME280;57976;48.174;16.370;2022-10-04T10:34:19;99948.52;;;15.95;64.65
70488;BME280;57976;48.174;16.370;2022-10-04T10:36:46;99942.66;;;15.99;63.95
70488;BME280;57976;48.174;16.370;2022-10-04T10:39:06;99940.63;;;16.01;64.47
70488;BME280;57976;48.174;16.370;2022-10-04T10:41:29;99946.59;;;16.02;64.47
70488;BME280;57976;48.174;16.370;2022-10-04T10:43:48;99942.78;;;16.08;64.76
70488;BME280;57976;48.174;16.370;2022-10-04T10:46:05;99942.56;;;16.16;64.19
70488;BME280;57976;48.174;16.370;2022-10-04T10:48:19;99946.46;;;16.20;64.07
70488;BME280;57976;48.174;16.370;2022-10-04T10:50:53;99942.70;;;16.19;63.69
70488;BME280;57976;48.174;16.370;2022-10-04T10:53:23;99938.14;;;16.19;63.98
70488;BME280;57976;48.174;16.370;2022-10-04T10:56:11;99939.59;;;16.16;63.95
70488;BME280;57976;48.174;16.370;2022-10-04T10:59:06;99940.31;;;16.15;64.06
70488;BME280;57976;48.174;16.370;2022-10-04T11:01:43;99937.11;;;16.17;64.26
70488;BME280;57976;48.174;16.370;2022-10-04T11:04:20;99944.29;;;16.25;64.19
70488;BME280;57976;48.174;16.370;2022-10-04T11:09:29;99942.05;;;16.55;63.41
70488;BME280;57976;48.174;16.370;2022-10-04T11:14:32;99944.78;;;16.87;62.51
70488;BME280;57976;48.174;16.370;2022-10-04T11:17:00;99939.33;;;16.97;61.93
70488;BME280;57976;48.174;16.370;2022-10-04T11:24:53;99930.76;;;17.32;61.63
70488;BME280;57976;48.174;16.370;2022-10-04T11:27:15;99934.23;;;17.39;60.27
70488;BME280;57976;48.174;16.370;2022-10-04T11:29:31;99933.19;;;17.38;59.93
70488;BME280;57976;48.174;16.370;2022-10-04T11:34:44;99930.41;;;17.46;60.00
70488;BME280;57976;48.174;16.370;2022-10-04T11:37:05;99925.80;;;17.48;59.43
70488;BME280;57976;48.174;16.370;2022-10-04T11:39:27;99925.98;;;17.48;59.72
70488;BME280;57976;48.174;16.370;2022-10-04T11:41:49;99926.65;;;17.48;59.21
70488;BME280;57976;48.174;16.370;2022-10-04T11:44:10;99924.95;;;17.49;58.98
70488;BME280;57976;48.174;16.370;2022-10-04T11:46:26;99932.09;;;17.53;58.66
70488;BME280;57976;48.174;16.370;2022-10-04T11:48:45;99931.60;;;17.55;58.24
70488;BME280;57976;48.174;16.370;2022-10-04T11:51:16;99929.65;;;17.55;58.18
70488;BME280;57976;48.174;16.370;2022-10-04T11:56:34;99933.38;;;17.48;58.29
70488;BME280;57976;48.174;16.370;2022-10-04T11:59:02;99932.19;;;17.44;58.48
70488;BME280;57976;48.174;16.370;2022-10-04T12:01:52;99926.16;;;17.40;58.31
70488;BME280;57976;48.174;16.370;2022-10-04T12:04:32;99920.66;;;17.39;58.65
70488;BME280;57976;48.174;16.370;2022-10-04T12:06:51;99917.70;;;17.46;59.37
70488;BME280;57976;48.174;16.370;2022-10-04T12:09:12;99911.42;;;17.54;59.30
70488;BME280;57976;48.174;16.370;2022-10-04T12:11:37;99911.34;;;17.61;59.00
70488;BME280;57976;48.174;16.370;2022-10-04T12:14:00;99915.80;;;17.68;58.70
70488;BME280;57976;48.174;16.370;2022-10-04T12:16:28;99912.30;;;17.70;58.11
70488;BME280;57976;48.174;16.370;2022-10-04T12:21:24;99914.34;;;17.63;57.32
70488;BME280;57976;48.174;16.370;2022-10-04T12:26:21;99905.35;;;17.61;57.90
70488;BME280;57976;48.174;16.370;2022-10-04T12:29:04;99900.80;;;17.62;57.81
70488;BME280;57976;48.174;16.370;2022-10-04T12:31:20;99894.77;;;17.69;57.77
70488;BME280;57976;48.174;16.370;2022-10-04T12:33:31;99897.20;;;17.79;56.97
70488;BME280;57976;48.174;16.370;2022-10-04T12:36:01;99901.24;;;17.90;56.73
70488;BME280;57976;48.174;16.370;2022-10-04T12:38:23;99904.69;;;18.03;56.39
70488;BME280;57976;48.174;16.370;2022-10-04T12:40:38;99911.57;;;18.07;55.22
70488;BME280;57976;48.174;16.370;2022-10-04T12:42:50;99900.14;;;18.03;55.23
70488;BME280;57976;48.174;16.370;2022-10-04T12:45:18;99902.59;;;18.01;55.73
70488;BME280;57976;48.174;16.370;2022-10-04T12:47:50;99904.75;;;18.02;56.12